メインページ
METAR-TAF:

METAR-TAF

空港 :

ラバト, モロッコ

ラバト=サレ空港

緯度: 34-03N, 経度: 006-46W, 海抜: 84m

現時点の気象観測

当レポートは12分前の04:54(UTC)に作成
南/南東の風 1kt
気温 17°C
湿度 94%
気圧 1021 hPa
視程: 5000m
高度1000ftの雲はほとんどない
高度1600ftの雲は散在している

METAR: GMME 210454Z 15001KT 5000 FEW010 SCT016 17/16 Q1021 NOSIG

時間: 06:06 (05:06 UTC)

予報

当レポートは6時間6分前の23:00(UTC)に作成
予報は21日の 00時(UTC)から 22日の 06時(UTC)まで有効
変向風 2kt
視程: 5000m
高度1200ftの雲は散在している
高度2000ftの雲は散在している
21日の 00時(UTC)から 21日の 06時(UTC)まで一時的に
視程: 3000m
高度800ftの雲は散在している
高度1500ftの千切れ雲あり
21日の 10時(UTC)から 21日の 12時(UTC)まで徐々に
北西の風 8kt
視程10km以上
高度1600ftの雲は散在している
高度20000ftの雲は散在している

TAF: GMME 202300Z 2100/2206 VRB02KT 5000 SCT012 SCT020 TEMPO 2100/2106 3000 BR SCT008 BKN015 BECMG 2110/2112 32008KT 9999 SCT016 SCT200

4,000以上の空港の気象観測と天気予報(METAR報とTAF報)

利用可能な観測所は地図上に黄色い丸と赤い丸で示す。

丸の上にカーソルを重ねると観測所名を参照できる。

次にクリックすると気象観測と天気予報を参照できる。

マップの切り替え:黒色「×」印の緑ボタンをクリックして拡大、「-」印の緑ボタンをクリックして縮小、緑色の三角印をクリックして隣りの地図に切り替え


METAR-TAF: